Time;durP1;ratioP1;P1;durP2;ratioP2;P2;SDS_P1;SDS_P2;PMS_P1;PMS_P2;Temp;Humidity;BMP_temperature;BMP_pressure;BME280_temperature;BME280_humidity;BME280_pressure;Samples;Min_cycle;Max_cycle;Signal;HPM_P1;HPM_P2
2023/10/16 00:00:29;;;;;;;19.20;9.40;;;;;;;6.13;100.00;102109.78;5028980;28;20128;-86
2023/10/16 00:02:59;;;;;;;19.00;9.25;;;;;;;6.21;100.00;102108.53;5033193;28;20040;-86
2023/10/16 00:05:32;;;;;;;15.57;8.73;;;;;;;6.32;100.00;102107.22;5048029;28;20095;-86
2023/10/16 00:08:05;;;;;;;20.98;9.82;;;;;;;6.24;100.00;102113.84;5048325;28;20490;-85
2023/10/16 00:10:35;;;;;;;15.55;8.63;;;;;;;6.31;100.00;102110.88;5046358;28;20099;-85
2023/10/16 00:13:04;;;;;;;19.40;8.88;;;;;;;6.26;100.00;102100.19;5058639;28;20029;-85
2023/10/16 00:15:44;;;;;;;13.23;8.65;;;;;;;6.15;100.00;102100.63;5052771;28;20044;-85
2023/10/16 00:18:22;;;;;;;21.40;8.10;;;;;;;6.07;100.00;102102.78;5051719;28;20607;-86
2023/10/16 00:20:52;;;;;;;14.73;8.43;;;;;;;6.06;100.00;102098.28;5053284;28;20600;-86
2023/10/16 00:23:24;;;;;;;16.08;8.48;;;;;;;6.06;100.00;102099.16;5033340;28;20475;-86
2023/10/16 00:25:50;;;;;;;15.02;8.35;;;;;;;6.13;100.00;102105.22;5051780;28;20045;-86
2023/10/16 00:28:21;;;;;;;15.65;8.40;;;;;;;6.03;100.00;102106.56;5031395;28;20509;-86
2023/10/16 00:30:47;;;;;;;16.17;8.10;;;;;;;6.14;100.00;102106.13;5043793;28;20064;-85
2023/10/16 00:33:14;;;;;;;19.15;8.32;;;;;;;5.91;100.00;102118.78;5031749;28;20070;-86
2023/10/16 00:35:41;;;;;;;16.75;8.02;;;;;;;5.85;100.00;102116.28;5051861;28;20035;-86
2023/10/16 00:38:19;;;;;;;18.05;8.65;;;;;;;5.77;100.00;102110.25;5051409;28;20112;-85
2023/10/16 00:43:33;;;;;;;17.70;8.98;;;;;;;5.78;100.00;102110.22;5049853;28;20059;-86
2023/10/16 00:46:11;;;;;;;14.57;9.15;;;;;;;5.74;100.00;102110.38;5050535;28;20029;-86
2023/10/16 00:48:39;;;;;;;14.73;8.55;;;;;;;5.82;100.00;102100.09;5051434;28;20036;-86
2023/10/16 00:51:13;;;;;;;22.50;8.73;;;;;;;5.77;100.00;102096.69;5052662;28;20068;-86
2023/10/16 00:53:40;;;;;;;20.48;9.18;;;;;;;5.87;100.00;102106.22;5044506;28;20018;-86
2023/10/16 00:56:08;;;;;;;15.48;8.73;;;;;;;6.03;100.00;102110.19;5048896;28;20040;-86
2023/10/16 00:58:37;;;;;;;18.88;9.20;;;;;;;5.92;100.00;102108.78;5044631;28;20031;-86
2023/10/16 01:01:05;;;;;;;17.38;8.95;;;;;;;5.79;100.00;102102.94;5048752;28;20041;-86
2023/10/16 01:03:34;;;;;;;24.00;9.32;;;;;;;5.91;100.00;102102.47;5053550;28;20025;-86
2023/10/16 01:06:01;;;;;;;17.75;7.88;;;;;;;6.05;100.00;102100.13;5050866;28;20040;-86
2023/10/16 01:08:34;;;;;;;21.10;8.93;;;;;;;6.03;100.00;102093.88;5048430;28;20025;-85
2023/10/16 01:11:01;;;;;;;22.80;8.35;;;;;;;5.99;100.00;102094.03;5050681;28;20403;-86
2023/10/16 01:13:28;;;;;;;16.02;8.40;;;;;;;5.86;100.00;102099.91;5050867;28;20477;-86
2023/10/16 01:15:56;;;;;;;14.85;7.72;;;;;;;5.89;100.00;102096.22;5017557;28;20170;-86
2023/10/16 01:18:23;;;;;;;16.58;8.20;;;;;;;5.82;100.00;102098.28;5052744;28;20028;-85
2023/10/16 01:20:50;;;;;;;17.90;7.43;;;;;;;5.83;100.00;102089.16;5049364;28;20044;-85
2023/10/16 01:23:20;;;;;;;17.83;7.95;;;;;;;5.97;100.00;102087.75;5047257;28;20029;-85
2023/10/16 01:25:48;;;;;;;19.05;7.63;;;;;;;5.86;100.00;102086.34;5050809;28;20033;-85
2023/10/16 01:28:15;;;;;;;19.00;7.75;;;;;;;5.82;100.00;102083.78;5051391;28;20382;-85
2023/10/16 01:30:42;;;;;;;14.52;7.93;;;;;;;5.69;100.00;102080.69;5052164;28;20029;-86
2023/10/16 01:33:09;;;;;;;15.00;7.63;;;;;;;5.66;100.00;102080.81;5024716;28;20497;-85
2023/10/16 01:35:36;;;;;;;18.33;8.52;;;;;;;5.59;100.00;102074.72;5047423;28;20029;-85
2023/10/16 01:38:27;;;;;;;16.88;8.50;;;;;;;5.62;100.00;102076.41;5052337;28;20031;-77
2023/10/16 01:41:39;;;;;;;21.83;8.60;;;;;;;5.56;100.00;102065.78;5044044;28;20033;-77
2023/10/16 01:43:46;;;;;;;20.52;8.77;;;;;;;5.48;100.00;102071.53;5031271;28;20116;-77
2023/10/16 01:46:13;;;;;;;16.48;8.55;;;;;;;5.57;100.00;102073.00;5043374;28;20029;-77
2023/10/16 01:48:44;;;;;;;16.63;8.68;;;;;;;5.70;100.00;102079.72;5050978;28;20021;-77
2023/10/16 01:51:11;;;;;;;16.30;8.95;;;;;;;5.71;100.00;102082.38;5045810;28;20037;-77
2023/10/16 01:53:42;;;;;;;17.25;8.95;;;;;;;5.70;100.00;102075.16;5028674;28;20044;-77
2023/10/16 01:56:14;;;;;;;16.10;8.40;;;;;;;5.62;100.00;102068.28;5033331;28;20091;-77
2023/10/16 01:58:41;;;;;;;19.13;9.35;;;;;;;5.41;100.00;102072.69;5032333;28;20625;-77
2023/10/16 02:01:08;;;;;;;14.32;8.43;;;;;;;5.41;100.00;102075.41;5034449;28;20033;-77
2023/10/16 02:03:34;;;;;;;20.10;9.63;;;;;;;5.32;100.00;102068.50;5032088;28;20510;-77
2023/10/16 02:05:59;;;;;;;16.05;9.30;;;;;;;5.33;100.00;102067.56;5050265;28;20033;-77
2023/10/16 02:08:25;;;;;;;17.40;9.25;;;;;;;5.55;100.00;102070.34;5031422;28;20045;-77
2023/10/16 02:10:50;;;;;;;20.77;9.70;;;;;;;5.50;100.00;102069.63;5049853;28;20509;-77
2023/10/16 02:13:17;;;;;;;14.88;9.07;;;;;;;5.44;100.00;102067.16;5046824;28;20037;-76
2023/10/16 02:15:42;;;;;;;18.90;9.18;;;;;;;5.47;100.00;102067.03;5028636;28;20063;-77
2023/10/16 02:18:18;;;;;;;18.13;9.13;;;;;;;5.49;100.00;102062.41;5032403;28;20033;-77
2023/10/16 02:20:49;;;;;;;16.92;10.07;;;;;;;5.50;100.00;102058.78;5035267;28;20028;-77
2023/10/16 02:23:15;;;;;;;15.32;9.05;;;;;;;5.44;100.00;102057.16;5065038;28;20033;-77
2023/10/16 02:25:41;;;;;;;21.42;9.85;;;;;;;5.41;100.00;102059.13;5050227;28;20024;-77
2023/10/16 02:28:08;;;;;;;17.98;8.70;;;;;;;5.41;100.00;102059.13;5029599;28;20045;-77
2023/10/16 02:30:38;;;;;;;20.98;10.02;;;;;;;5.52;100.00;102059.59;5048103;28;20111;-77
2023/10/16 02:35:47;;;;;;;20.75;9.75;;;;;;;5.46;100.00;102062.53;5044991;28;20033;-77
2023/10/16 02:38:23;;;;;;;17.90;9.45;;;;;;;5.33;100.00;102054.00;5049215;28;20063;-77
2023/10/16 02:40:53;;;;;;;13.00;8.95;;;;;;;5.25;100.00;102046.13;5040473;28;20490;-77
2023/10/16 02:43:23;;;;;;;20.25;9.55;;;;;;;5.44;100.00;102053.56;5048023;28;20029;-77
2023/10/16 02:45:53;;;;;;;19.30;10.73;;;;;;;5.28;100.00;102051.44;5042602;28;20033;-77
2023/10/16 02:48:20;;;;;;;17.05;9.35;;;;;;;5.06;100.00;102050.47;5047542;28;20041;-86
2023/10/16 02:50:50;;;;;;;22.50;10.43;;;;;;;5.05;100.00;102043.25;5044946;28;20028;-86
2023/10/16 02:53:21;;;;;;;23.90;9.57;;;;;;;5.08;100.00;102048.56;5050370;28;20112;-86
2023/10/16 02:55:49;;;;;;;24.35;10.85;;;;;;;5.13;100.00;102046.56;5048840;28;20095;-86
2023/10/16 02:58:16;;;;;;;24.52;10.25;;;;;;;5.04;100.00;102044.22;5034254;28;20056;-86
2023/10/16 03:00:49;;;;;;;25.42;9.63;;;;;;;5.23;100.00;102045.31;5048077;28;20364;-86
2023/10/16 03:03:17;;;;;;;19.13;11.15;;;;;;;5.32;100.00;102044.94;5045765;28;20364;-85
2023/10/16 03:05:44;;;;;;;24.27;11.75;;;;;;;5.32;100.00;102054.94;5049037;28;20036;-86
2023/10/16 03:08:11;;;;;;;16.45;10.63;;;;;;;5.40;100.00;102054.66;5030970;28;20048;-86
2023/10/16 03:10:40;;;;;;;27.63;11.00;;;;;;;5.42;100.00;102052.75;5063105;28;20036;-86
2023/10/16 03:13:06;;;;;;;22.38;10.75;;;;;;;5.30;100.00;102059.53;5050495;28;20040;-87
2023/10/16 03:15:42;;;;;;;18.08;10.23;;;;;;;5.13;100.00;102058.34;5015152;28;20033;-86
2023/10/16 03:18:17;;;;;;;21.52;10.13;;;;;;;5.19;100.00;102061.75;5029396;28;20483;-86
2023/10/16 03:20:46;;;;;;;20.92;10.65;;;;;;;5.39;100.00;102052.88;5044624;28;20021;-85
2023/10/16 03:23:14;;;;;;;22.80;10.70;;;;;;;5.21;100.00;102063.47;5029488;28;20506;-85
2023/10/16 03:28:09;;;;;;;25.05;11.02;;;;;;;5.27;100.00;102051.50;5049941;28;20060;-85
2023/10/16 03:30:34;;;;;;;21.98;10.07;;;;;;;5.21;100.00;102062.59;5051154;28;20483;-86
2023/10/16 03:33:04;;;;;;;36.00;11.15;;;;;;;5.12;100.00;102048.41;5033460;28;20032;-86
2023/10/16 03:35:30;;;;;;;16.65;9.68;;;;;;;5.01;100.00;102056.06;5045342;28;20060;-85
2023/10/16 03:37:56;;;;;;;21.17;10.32;;;;;;;4.71;100.00;102055.34;5049415;28;20025;-85
2023/10/16 03:40:25;;;;;;;19.55;10.18;;;;;;;4.76;100.00;102056.94;5053145;28;20033;-85
2023/10/16 03:42:55;;;;;;;18.27;10.30;;;;;;;4.77;100.00;102050.59;5049011;28;20036;-86
2023/10/16 03:45:21;;;;;;;20.73;10.48;;;;;;;4.93;100.00;102059.03;5035609;28;20091;-86
2023/10/16 03:48:00;;;;;;;19.15;10.30;;;;;;;4.99;100.00;102060.66;5034908;28;20035;-85
2023/10/16 03:50:26;;;;;;;16.75;9.88;;;;;;;4.84;100.00;102043.13;5053838;28;20505;-86
2023/10/16 03:52:54;;;;;;;25.20;10.95;;;;;;;4.82;100.00;102052.22;5050232;28;20024;-87
2023/10/16 03:55:24;;;;;;;19.90;10.68;;;;;;;4.86;100.00;102041.22;5048957;28;20053;-87
2023/10/16 03:57:56;;;;;;;15.95;10.57;;;;;;;4.96;100.00;102045.38;5017992;28;20191;-77
2023/10/16 04:00:33;;;;;;;22.38;10.35;;;;;;;5.13;100.00;102041.13;5053565;28;20029;-77
2023/10/16 04:03:00;;;;;;;22.13;10.95;;;;;;;5.09;100.00;102044.94;5052053;28;20025;-77
2023/10/16 04:08:21;;;;;;;21.73;11.50;;;;;;;4.96;100.00;102030.91;5036489;28;20048;-77
2023/10/16 04:10:48;;;;;;;21.90;10.50;;;;;;;4.88;100.00;102033.03;5054014;28;20041;-77
2023/10/16 04:13:25;;;;;;;25.45;11.48;;;;;;;4.95;100.00;102030.03;5047776;28;20017;-77
2023/10/16 04:18:30;;;;;;;18.75;11.18;;;;;;;5.04;100.00;102028.81;5052794;28;20143;-77
2023/10/16 04:31:44;;;;;;;26.30;11.82;;;;;;;4.85;100.00;102028.59;5050858;28;20035;-77
2023/10/16 04:34:24;;;;;;;16.38;10.15;;;;;;;4.84;100.00;102017.78;5034511;28;20091;-77
2023/10/16 04:37:24;;;;;;;17.80;9.55;;;;;;;4.81;100.00;102016.09;5052132;28;20057;-77
2023/10/16 05:01:32;;;;;;;20.80;10.93;;;;;;;4.76;100.00;102004.53;5050045;28;20032;-77
2023/10/16 05:04:24;;;;;;;20.00;10.60;;;;;;;4.73;100.00;102001.91;5029905;28;20050;-77
2023/10/16 05:17:21;;;;;;;20.30;11.98;;;;;;;4.88;100.00;102004.06;5017153;28;20060;-86
2023/10/16 05:19:53;;;;;;;23.80;12.45;;;;;;;4.88;100.00;102004.06;5022426;28;20495;-85
2023/10/16 06:14:20;;;;;;;29.88;13.77;;;;;;;5.01;100.00;101992.75;5048239;28;20036;-85
2023/10/16 06:16:53;;;;;;;28.30;15.90;;;;;;;5.22;100.00;101999.22;5048239;28;20032;-85
2023/10/16 06:19:19;;;;;;;26.55;14.88;;;;;;;5.25;100.00;102008.13;5045972;28;20044;-75
2023/10/16 06:21:57;;;;;;;29.60;14.57;;;;;;;5.32;100.00;102001.50;5027741;28;21944;-77
2023/10/16 06:24:35;;;;;;;25.05;14.45;;;;;;;5.45;100.00;101998.31;5047878;28;20490;-77
2023/10/16 06:27:12;;;;;;;30.30;16.25;;;;;;;5.47;100.00;101999.13;5047270;28;20120;-77
2023/10/16 06:29:50;;;;;;;31.77;15.63;;;;;;;5.56;100.00;102006.94;5051341;28;20037;-85
2023/10/16 06:32:25;;;;;;;27.35;14.88;;;;;;;5.37;100.00;102001.31;5051561;28;20451;-85
2023/10/16 06:35:01;;;;;;;27.13;15.43;;;;;;;5.37;100.00;102004.03;5050071;28;20033;-85
2023/10/16 06:37:31;;;;;;;32.90;16.40;;;;;;;5.43;100.00;102002.94;5050259;28;20083;-85
2023/10/16 06:40:00;;;;;;;29.90;16.05;;;;;;;5.48;100.00;102001.78;5049721;28;20040;-86
2023/10/16 06:42:27;;;;;;;32.00;16.80;;;;;;;5.56;100.00;102000.59;5047891;28;20037;-84
2023/10/16 06:44:53;;;;;;;27.48;15.60;;;;;;;5.59;100.00;102000.47;5049032;28;20033;-85
2023/10/16 06:47:35;;;;;;;35.45;16.95;;;;;;;5.52;100.00;101999.84;5044694;28;20037;-85
2023/10/16 06:52:52;;;;;;;32.70;16.55;;;;;;;5.74;100.00;101996.25;5051310;28;20048;-86
2023/10/16 06:55:18;;;;;;;28.65;16.88;;;;;;;5.76;100.00;101999.81;5047917;28;20086;-86
2023/10/16 06:57:44;;;;;;;34.80;17.00;;;;;;;5.63;100.00;102004.84;5050358;28;20029;-85
2023/10/16 07:00:25;;;;;;;30.45;16.63;;;;;;;5.64;100.00;101999.34;5048574;28;20079;-85
2023/10/16 07:02:54;;;;;;;30.15;16.98;;;;;;;5.69;100.00;101999.19;5047970;28;20037;-87
2023/10/16 07:05:23;;;;;;;34.53;18.08;;;;;;;5.69;100.00;102000.06;5043140;28;20075;-87
2023/10/16 07:07:49;;;;;;;31.77;18.17;;;;;;;5.82;100.00;101994.09;5030624;28;20064;-87
2023/10/16 07:10:15;;;;;;;31.05;19.13;;;;;;;5.90;100.00;102000.13;5029015;28;20049;-88
2023/10/16 07:12:58;;;;;;;29.80;17.83;;;;;;;5.91;100.00;102001.03;5025583;28;20029;-87
2023/10/16 07:15:29;;;;;;;32.05;18.10;;;;;;;6.17;100.00;101997.25;5045527;28;20044;-90
2023/10/16 07:18:05;;;;;;;31.23;16.45;;;;;;;6.01;100.00;101997.88;5044557;28;20021;-87
2023/10/16 07:20:54;;;;;;;31.27;16.90;;;;;;;6.17;100.00;101987.25;5024564;28;20098;-86
2023/10/16 07:23:24;;;;;;;29.30;16.67;;;;;;;6.08;100.00;102001.22;5043241;28;20398;-87
2023/10/16 07:28:19;;;;;;;35.33;16.58;;;;;;;6.11;100.00;102000.22;5049256;28;20043;-86
2023/10/16 07:30:44;;;;;;;41.22;17.52;;;;;;;6.18;100.00;101999.00;5049241;28;20033;-89
2023/10/16 07:33:17;;;;;;;35.15;17.83;;;;;;;6.24;100.00;102001.47;5019600;28;20049;-85
2023/10/16 07:35:44;;;;;;;31.48;17.45;;;;;;;6.22;100.00;102006.09;5032024;28;20025;-87
2023/10/16 07:38:22;;;;;;;36.10;18.02;;;;;;;6.42;100.00;102006.09;5046841;28;20025;-86
2023/10/16 07:40:59;;;;;;;35.60;18.88;;;;;;;6.51;100.00;102015.72;5047169;28;20024;-86
2023/10/16 07:43:33;;;;;;;36.83;18.13;;;;;;;6.57;100.00;102007.28;5044048;28;20437;-88
2023/10/16 07:48:34;;;;;;;37.03;19.85;;;;;;;6.61;100.00;102011.66;5048845;28;20029;-79
2023/10/16 07:51:01;;;;;;;31.30;18.38;;;;;;;6.68;100.00;102009.53;5015931;28;20083;-79
2023/10/16 07:53:28;;;;;;;31.92;19.50;;;;;;;6.71;100.00;102009.41;5040138;28;20426;-79
2023/10/16 07:55:55;;;;;;;36.92;20.25;;;;;;;6.83;100.00;102010.69;5026420;28;20137;-79
2023/10/16 07:58:33;;;;;;;31.52;18.77;;;;;;;7.08;100.00;102002.28;5042399;28;20049;-80
2023/10/16 08:03:41;;;;;;;29.25;17.90;;;;;;;7.50;100.00;101993.06;5049349;28;20048;-79
2023/10/16 08:06:12;;;;;;;32.70;18.48;;;;;;;7.34;100.00;102006.50;5026338;28;20033;-78
2023/10/16 08:08:42;;;;;;;31.95;17.30;;;;;;;7.45;100.00;102016.03;5042680;28;20025;-79
2023/10/16 08:11:13;;;;;;;27.83;18.05;;;;;;;7.59;100.00;102005.38;5049680;28;20025;-76
2023/10/16 08:13:46;;;;;;;33.03;18.77;;;;;;;7.59;100.00;101999.94;5047148;28;20028;-78
2023/10/16 08:16:18;;;;;;;;;;;;;;;7.58;100.00;102013.63;5048579;28;20033;-78
2023/10/16 08:18:48;;;;;;;40.20;18.02;;;;;;;7.85;100.00;102004.06;5040566;28;19912;-79
2023/10/16 08:21:26;;;;;;;30.05;18.95;;;;;;;7.98;100.00;102004.34;5050209;28;20151;-79
2023/10/16 08:23:59;;;;;;;28.33;17.83;;;;;;;7.75;100.00;102013.69;5046697;28;20430;-79
2023/10/16 08:26:41;;;;;;;36.33;18.60;;;;;;;7.99;100.00;102008.88;5051223;28;20033;-79
2023/10/16 08:31:44;;;;;;;30.55;18.25;;;;;;;8.01;100.00;102008.78;5046359;28;20071;-79
2023/10/16 08:34:13;;;;;;;33.63;19.08;;;;;;;8.29;100.00;102020.06;5049563;28;20040;-79
2023/10/16 08:36:40;;;;;;;25.83;17.02;;;;;;;8.19;100.00;102018.78;5052689;28;20428;-79
2023/10/16 08:39:08;;;;;;;27.33;16.63;;;;;;;8.41;100.00;102015.84;5017296;28;20029;-79
2023/10/16 08:42:01;;;;;;;32.15;17.50;;;;;;;8.49;100.00;102022.78;5031921;28;20026;-78
2023/10/16 08:44:28;;;;;;;25.05;18.10;;;;;;;8.61;100.00;102016.69;5044897;28;20036;-79
2023/10/16 08:49:26;;;;;;;28.80;17.38;;;;;;;9.07;100.00;102010.63;5046959;28;20021;-77
2023/10/16 08:51:54;;;;;;;26.38;17.30;;;;;;;8.91;100.00;102016.91;5045673;28;20094;-76
2023/10/16 08:55:00;;;;;;;30.17;17.63;;;;;;;9.05;100.00;102009.81;5037918;28;20043;-76
2023/10/16 08:57:09;;;;;;;27.48;17.40;;;;;;;8.98;100.00;102022.94;5044062;28;20088;-76
2023/10/16 08:59:38;;;;;;;28.15;17.45;;;;;;;9.18;100.00;102019.09;5047739;28;20438;-83
2023/10/16 09:02:11;;;;;;;37.05;18.98;;;;;;;9.19;100.00;102023.63;5051164;28;20037;-84
2023/10/16 09:04:38;;;;;;;38.58;17.83;;;;;;;9.32;100.00;102023.84;5053563;28;20487;-84
2023/10/16 09:07:03;;;;;;;30.13;17.90;;;;;;;9.35;100.00;102019.06;5047324;28;20565;-84
2023/10/16 09:09:31;;;;;;;26.95;17.98;;;;;;;9.86;100.00;102018.09;5050619;28;20047;-84
2023/10/16 09:12:04;;;;;;;25.85;16.70;;;;;;;10.32;100.00;102020.91;5046399;28;20060;-84
2023/10/16 09:14:29;;;;;;;;;;;;;;;10.72;100.00;102017.59;5049297;28;20036;-84
2023/10/16 09:16:58;;;;;;;23.85;14.80;;;;;;;10.89;100.00;102028.44;5048242;28;20282;-84
2023/10/16 09:19:34;;;;;;;32.50;15.02;;;;;;;11.21;100.00;102012.72;5050350;28;20617;-84
2023/10/16 09:22:08;;;;;;;23.42;14.88;;;;;;;11.38;100.00;102011.63;5048057;28;20056;-84
2023/10/16 09:24:35;;;;;;;26.52;14.00;;;;;;;11.51;100.00;102010.81;5051296;28;20024;-85
2023/10/16 09:27:11;;;;;;;21.25;14.63;;;;;;;11.27;100.00;102011.44;5049342;28;20025;-84
2023/10/16 09:29:36;;;;;;;27.30;14.52;;;;;;;11.07;100.00;102006.31;5051453;28;20497;-84
2023/10/16 09:32:06;;;;;;;19.35;13.88;;;;;;;11.52;100.00;102009.88;5033805;28;20036;-84
2023/10/16 09:34:33;;;;;;;25.98;13.63;;;;;;;11.56;100.00;102004.09;5047518;28;20036;-87
2023/10/16 09:39:46;;;;;;;24.88;12.77;;;;;;;12.16;100.00;101999.25;5046644;28;20043;-86
2023/10/16 09:42:12;;;;;;;22.40;13.38;;;;;;;11.94;100.00;101994.34;5048963;28;20151;-85
2023/10/16 09:44:56;;;;;;;21.92;14.43;;;;;;;12.16;100.00;101993.78;5047148;28;20123;-86
2023/10/16 09:47:30;;;;;;;18.98;12.85;;;;;;;11.93;100.00;102001.69;5050340;28;20029;-86
2023/10/16 09:49:58;;;;;;;27.20;12.45;;;;;;;12.24;100.00;102005.13;5049833;28;20040;-86
2023/10/16 09:52:24;;;;;;;17.90;10.85;;;;;;;12.29;100.00;102008.44;5045626;28;20033;-87
2023/10/16 09:54:52;;;;;;;29.52;11.48;;;;;;;12.39;100.00;102007.81;5051102;28;20033;-85
2023/10/16 09:57:27;;;;;;;22.67;11.10;;;;;;;12.19;100.00;102006.44;5050605;28;20061;-86
2023/10/16 09:59:54;;;;;;;18.88;11.07;;;;;;;12.48;100.00;102012.69;5051336;28;20025;-88
2023/10/16 10:02:25;;;;;;;19.65;11.88;;;;;;;12.67;100.00;102015.03;5051047;28;20033;-86
2023/10/16 10:04:59;;;;;;;14.40;9.70;;;;;;;12.50;100.00;102017.06;5034175;28;20116;-90
2023/10/16 10:07:38;;;;;;;13.82;9.32;;;;;;;12.06;100.00;102009.13;5049476;28;20063;-86
2023/10/16 10:11:04;;;;;;;15.05;8.45;;;;;;;12.35;100.00;102011.75;5043622;28;20025;-87
2023/10/16 10:12:53;;;;;;;12.50;8.68;;;;;;;12.24;100.00;102005.13;5051729;28;20055;-87
2023/10/16 10:15:30;;;;;;;17.08;8.60;;;;;;;12.39;100.00;101999.56;5050518;28;20035;-87
2023/10/16 10:18:01;;;;;;;20.58;8.07;;;;;;;12.37;100.00;101996.94;5051405;28;20028;-87
2023/10/16 10:20:31;;;;;;;14.45;7.88;;;;;;;12.72;100.00;102001.84;5048202;28;20494;-88
2023/10/16 10:23:08;;;;;;;11.43;7.72;;;;;;;12.75;100.00;101995.25;5048490;28;20021;-88
2023/10/16 10:25:40;;;;;;;18.27;7.78;;;;;;;13.28;100.00;101993.31;5068800;28;20035;-89
2023/10/16 10:28:28;;;;;;;14.00;7.60;;;;;;;12.59;100.00;101999.09;5051001;28;20028;-90
2023/10/16 10:31:14;;;;;;;17.85;7.00;;;;;;;13.63;100.00;101994.53;5050165;28;20487;-87
2023/10/16 10:33:58;;;;;;;12.93;7.38;;;;;;;13.00;100.00;101989.81;5047794;28;20025;-87
2023/10/16 10:36:32;;;;;;;14.75;8.38;;;;;;;13.28;100.00;101990.56;5051331;28;20029;-87
2023/10/16 10:39:20;;;;;;;18.20;9.40;;;;;;;13.93;100.00;101989.44;5047123;28;20020;-86
2023/10/16 10:41:54;;;;;;;16.25;9.00;;;;;;;13.57;100.00;101985.69;5047694;28;20021;-86
2023/10/16 10:47:41;;;;;;;12.88;8.77;;;;;;;13.29;100.00;101988.69;5049817;28;20171;-87
2023/10/16 10:50:13;;;;;;;16.20;7.78;;;;;;;13.34;100.00;101983.75;5048725;28;20534;-85
2023/10/16 10:52:38;;;;;;;11.95;8.05;;;;;;;13.44;100.00;101984.84;5046766;28;20534;-87
2023/10/16 10:55:21;;;;;;;12.82;8.70;;;;;;;13.20;100.00;101979.25;5051844;28;20145;-86
2023/10/16 10:57:55;;;;;;;;;;;;;;;13.47;100.00;101981.00;5052429;28;20045;-87
2023/10/16 11:00:43;;;;;;;16.60;8.63;;;;;;;13.39;100.00;101976.06;5046482;28;19923;-86
2023/10/16 11:03:10;;;;;;;12.93;8.13;;;;;;;13.18;100.00;101972.94;5045236;28;20123;-86
2023/10/16 11:05:45;;;;;;;12.35;7.43;;;;;;;13.54;100.00;101969.44;5050431;28;20112;-87
2023/10/16 11:10:41;;;;;;;10.40;5.65;;;;;;;13.13;100.00;101966.91;5050472;28;20402;-86
2023/10/16 11:13:11;;;;;;;10.88;5.15;;;;;;;13.38;100.00;101961.44;5046050;28;20043;-86
2023/10/16 11:15:48;;;;;;;10.52;5.55;;;;;;;13.16;100.00;101952.94;5043474;28;20544;-87
2023/10/16 11:18:18;;;;;;;16.17;5.82;;;;;;;13.19;100.00;101953.59;5041095;28;20033;-87
2023/10/16 11:20:46;;;;;;;13.45;6.88;;;;;;;12.92;100.00;101950.97;5050853;28;20025;-86
2023/10/16 11:23:13;;;;;;;10.52;6.00;;;;;;;13.00;100.00;101951.31;5051786;28;20021;-87
2023/10/16 11:25:46;;;;;;;10.90;6.53;;;;;;;12.78;100.00;101945.59;5042811;28;20052;-86
2023/10/16 11:28:20;;;;;;;;;;;;;;;12.96;100.00;101954.38;5051945;28;20027;-87
2023/10/16 11:30:49;;;;;;;10.82;5.82;;;;;;;12.96;100.00;101943.38;5050427;28;19915;-86
2023/10/16 11:34:34;;;;;;;12.25;5.65;;;;;;;12.88;100.00;101941.19;5049625;28;20115;-86
2023/10/16 11:36:31;;;;;;;6.28;4.53;;;;;;;12.78;100.00;101943.69;5039781;28;20029;-86
2023/10/16 11:39:06;;;;;;;7.55;5.25;;;;;;;13.02;100.00;101938.31;5046538;28;20025;-86
2023/10/16 11:41:32;;;;;;;8.90;5.63;;;;;;;13.14;100.00;101939.31;5047867;28;20029;-86
2023/10/16 11:44:04;;;;;;;12.60;4.72;;;;;;;13.15;100.00;101931.91;5050913;28;20086;-86
2023/10/16 11:46:44;;;;;;;7.15;5.22;;;;;;;13.01;100.00;101927.44;5048718;28;20033;-86
2023/10/16 11:49:35;;;;;;;7.95;5.05;;;;;;;13.22;100.00;101925.00;5050430;28;20021;-86
2023/10/16 11:52:19;;;;;;;10.98;5.32;;;;;;;13.13;100.00;101921.03;5046787;28;20037;-87
2023/10/16 11:54:53;;;;;;;9.93;5.13;;;;;;;13.34;100.00;101915.88;5046011;28;20029;-86
2023/10/16 11:57:19;;;;;;;11.95;4.97;;;;;;;13.66;100.00;101923.59;5046805;28;20052;-87
2023/10/16 11:59:44;;;;;;;9.50;3.35;;;;;;;13.38;100.00;101922.00;5052122;28;20025;-86
2023/10/16 12:02:14;;;;;;;8.45;3.70;;;;;;;13.47;100.00;101913.09;5046866;28;20542;-86
2023/10/16 12:04:40;;;;;;;7.75;4.10;;;;;;;13.34;100.00;101912.25;5050641;28;20524;-86
2023/10/16 12:07:07;;;;;;;9.70;4.55;;;;;;;13.31;100.00;101906.94;5036829;28;20021;-86
2023/10/16 12:09:38;;;;;;;9.25;4.55;;;;;;;13.27;100.00;101910.91;5054604;28;20055;-86
2023/10/16 12:12:06;;;;;;;7.30;4.05;;;;;;;13.49;100.00;101915.72;5053110;28;20025;-87
2023/10/16 12:14:37;;;;;;;8.80;5.10;;;;;;;13.59;100.00;101909.44;5054275;28;20032;-86
2023/10/16 12:17:06;;;;;;;8.23;4.50;;;;;;;13.58;100.00;101901.28;5057929;28;20059;-86
2023/10/16 12:19:34;;;;;;;6.93;4.72;;;;;;;13.61;100.00;101903.81;5037608;28;20025;-86
2023/10/16 12:22:00;;;;;;;9.48;4.88;;;;;;;13.58;100.00;101904.03;5053549;28;20028;-87
2023/10/16 12:24:29;;;;;;;7.57;4.25;;;;;;;13.70;100.00;101905.84;5053194;28;20037;-87
2023/10/16 12:26:55;;;;;;;11.13;5.00;;;;;;;13.64;100.00;101895.31;5035102;28;20033;-87
2023/10/16 12:29:20;;;;;;;11.18;5.13;;;;;;;13.85;100.00;101897.44;5034023;28;20120;-77
2023/10/16 12:31:48;;;;;;;10.18;4.78;;;;;;;13.73;100.00;101894.63;5052495;28;20036;-77
2023/10/16 12:34:16;;;;;;;11.00;4.15;;;;;;;13.79;100.00;101890.53;5050372;28;20025;-77
2023/10/16 12:36:43;;;;;;;4.13;3.13;;;;;;;14.07;100.00;101894.78;5051516;28;20029;-77
2023/10/16 12:39:29;;;;;;;6.15;3.22;;;;;;;13.99;100.00;101894.50;5051973;28;20028;-77
2023/10/16 12:41:56;;;;;;;8.40;3.50;;;;;;;13.91;100.00;101891.47;5051258;28;20050;-77
2023/10/16 12:44:25;;;;;;;9.85;2.90;;;;;;;14.02;100.00;101886.00;5054223;28;20032;-77
2023/10/16 12:46:53;;;;;;;5.63;1.95;;;;;;;13.92;100.00;101883.09;5051956;28;20402;-77
2023/10/16 12:49:19;;;;;;;9.20;2.80;;;;;;;13.83;100.00;101878.28;5052346;28;20155;-77
2023/10/16 12:51:44;;;;;;;7.50;2.55;;;;;;;13.82;100.00;101875.63;5053840;28;20108;-77
2023/10/16 12:54:12;;;;;;;6.05;2.60;;;;;;;13.73;100.00;101877.22;5052694;28;20108;-77
2023/10/16 12:56:41;;;;;;;7.25;3.13;;;;;;;13.53;100.00;101876.88;5052125;28;20052;-77
2023/10/16 12:59:08;;;;;;;6.82;2.85;;;;;;;13.98;100.00;101881.72;5047461;28;20122;-77
2023/10/16 13:01:36;;;;;;;5.30;2.55;;;;;;;14.34;100.00;101879.84;5048396;28;20059;-77
2023/10/16 13:04:06;;;;;;;7.60;3.83;;;;;;;13.97;100.00;101869.84;5049720;28;20037;-77
2023/10/16 13:06:32;;;;;;;6.45;2.70;;;;;;;14.04;100.00;101869.38;5031470;28;20398;-77
2023/10/16 13:09:00;;;;;;;8.05;3.22;;;;;;;13.83;100.00;101867.25;5052798;28;20114;-77
2023/10/16 13:11:27;;;;;;;8.18;3.60;;;;;;;13.63;100.00;101863.28;5035190;28;20060;-77
2023/10/16 13:13:56;;;;;;;6.65;3.38;;;;;;;13.74;100.00;101862.44;5035171;28;20021;-77
2023/10/16 13:16:24;;;;;;;6.80;4.13;;;;;;;13.63;100.00;101868.78;5053646;28;20095;-77
2023/10/16 13:18:59;;;;;;;4.40;3.05;;;;;;;13.80;100.00;101862.00;5050260;28;20028;-77
2023/10/16 13:21:33;;;;;;;5.05;3.40;;;;;;;13.92;100.00;101862.91;5052871;28;20021;-77
2023/10/16 13:24:06;;;;;;;7.07;3.17;;;;;;;13.97;100.00;101866.22;5050529;28;20120;-77
2023/10/16 13:26:35;;;;;;;5.15;3.22;;;;;;;13.88;100.00;101855.91;5050876;28;20060;-77
2023/10/16 13:29:12;;;;;;;8.63;3.53;;;;;;;13.78;100.00;101853.84;5053030;28;20024;-77
2023/10/16 13:31:42;;;;;;;7.03;3.42;;;;;;;13.61;100.00;101857.03;5050380;28;20037;-77
2023/10/16 13:34:13;;;;;;;7.55;3.50;;;;;;;13.84;100.00;101857.13;5050971;28;20035;-77
2023/10/16 13:36:39;;;;;;;6.60;3.90;;;;;;;13.78;100.00;101858.47;5051240;28;20083;-77
2023/10/16 13:39:09;;;;;;;4.25;3.20;;;;;;;13.68;100.00;101851.94;5051206;28;20025;-87
2023/10/16 13:41:50;;;;;;;10.40;3.58;;;;;;;13.82;100.00;101856.38;5052364;28;20059;-87